CYFO

Flin Flon Airport

Flin Flon, Manitoba, Canada
METAR CYFO 171400Z 10004KT 070V160 15SM FEW120 SCT250 M17/M20 A3009 RMK AC2CI1 SLP225
Observed Flight Rules
Dec-17 @ 14:00 UTC (36 minutes ago) Visual Flight Rules
Wind Visibility Clouds
100° at 4 knots 15 miles
  • Few at 12,000' AGL
  • Scattered at 25,000' AGL
Temperatures Readings
Current -17°C / 1°F
Dewpoint -20°C / -4°F
Humidity 78%
Altimeter 30.09" Hg
Pressure 1022.5 hPa
Elevation 304
METAR CYFO 171400Z 10004KT 070V160 15SM FEW120 SCT250 M17/M20 A3009 RMK AC2CI1 SLP225
Observed Flight Rules
Dec-17 @ 14:00 UTC
(36 minutes ago)
VFR
Wind Visibility
100° at 4 knots 15 miles
Clouds
  • Few at 12,000' AGL
  • Scattered at 25,000' AGL
Temperature Dewpoint
-17°C / 1°F -20°C / -4°F
Humidity Altimeter Pressure
78% 30.09" Hg 1022.5 hPa